createdAt,value
2018-10-11T00:00:31.381Z,11.57
2018-10-11T00:05:41.004Z,12.30
2018-10-11T00:10:51.287Z,11.77
2018-10-11T00:16:01.266Z,12.40
2018-10-11T00:21:11.768Z,11.83
2018-10-11T00:26:21.573Z,11.37
2018-10-11T00:31:31.130Z,11.53
2018-10-11T00:36:41.108Z,11.47
2018-10-11T00:41:51.109Z,12.60
2018-10-11T00:47:00.919Z,11.77
2018-10-11T00:52:10.682Z,10.97
2018-10-11T00:57:20.807Z,13.00
2018-10-11T01:02:30.626Z,12.53
2018-10-11T01:07:40.428Z,13.13
2018-10-11T01:12:50.120Z,13.27
2018-10-11T01:17:59.811Z,16.80
2018-10-11T01:23:10.037Z,12.17
2018-10-11T01:28:19.618Z,13.03
2018-10-11T01:33:29.290Z,15.33
2018-10-11T01:38:39.169Z,12.20
2018-10-11T01:43:48.824Z,12.30
2018-10-11T01:48:58.664Z,14.03
2018-10-11T01:54:08.434Z,15.03
2018-10-11T01:59:18.853Z,14.00
2018-10-11T02:04:29.424Z,14.20
2018-10-11T02:09:39.427Z,17.70
2018-10-11T02:14:49.133Z,12.00
2018-10-11T02:19:58.921Z,12.67
2018-10-11T02:25:08.865Z,14.40
2018-10-11T02:30:18.712Z,14.30
2018-10-11T02:35:28.625Z,14.37
2018-10-11T02:40:38.377Z,15.80
2018-10-11T02:45:48.337Z,13.20
2018-10-11T02:50:57.888Z,13.57
2018-10-11T02:56:08.194Z,16.00
2018-10-11T03:01:18.391Z,13.50
2018-10-11T03:06:29.035Z,13.17
2018-10-11T03:11:38.792Z,15.53
2018-10-11T03:16:49.140Z,14.80
2018-10-11T03:21:59.075Z,14.27
2018-10-11T03:27:08.928Z,18.57
2018-10-11T03:32:18.676Z,14.87
2018-10-11T03:37:28.612Z,13.30
2018-10-11T03:42:38.347Z,16.40
2018-10-11T03:47:48.687Z,15.37
2018-10-11T03:52:59.131Z,16.03
2018-10-11T03:58:08.873Z,15.83
2018-10-11T04:03:18.679Z,17.50
2018-10-11T04:08:29.631Z,17.60
2018-10-11T04:13:41.092Z,16.63
2018-10-11T04:18:51.844Z,16.97
2018-10-11T04:24:01.790Z,17.07
2018-10-11T04:29:11.408Z,20.63
2018-10-11T04:34:21.069Z,15.10
2018-10-11T04:39:30.682Z,11.13
2018-10-11T04:44:40.387Z,12.77
2018-10-11T04:49:50.551Z,16.40
2018-10-11T04:55:00.171Z,18.13
2018-10-11T05:00:11.184Z,16.33
2018-10-11T05:05:21.947Z,18.13
2018-10-11T05:10:31.492Z,19.20
2018-10-11T05:15:42.060Z,14.17
2018-10-11T05:20:51.484Z,18.30
2018-10-11T05:26:00.849Z,18.70
2018-10-11T05:31:11.112Z,23.77
2018-10-11T05:36:20.792Z,17.53
2018-10-11T05:41:30.440Z,20.43
2018-10-11T05:46:39.915Z,20.03
2018-10-11T05:51:49.574Z,17.83
2018-10-11T05:56:59.276Z,22.40
2018-10-11T06:02:08.751Z,21.63
2018-10-11T06:07:18.408Z,21.90
2018-10-11T06:12:28.081Z,22.57
2018-10-11T06:17:37.843Z,20.70
2018-10-11T06:22:47.613Z,24.40
2018-10-11T06:27:57.028Z,27.60
2018-10-11T06:33:06.781Z,18.67
2018-10-11T06:38:16.158Z,22.97
2018-10-11T06:43:25.867Z,22.23
2018-10-11T06:48:35.603Z,22.43
2018-10-11T06:53:45.247Z,23.37
2018-10-11T06:58:54.820Z,22.00
2018-10-11T07:04:04.372Z,21.57
2018-10-11T07:09:13.939Z,21.27
2018-10-11T07:14:23.479Z,20.63
2018-10-11T07:19:33.054Z,23.50
2018-10-11T07:24:42.704Z,19.23
2018-10-11T07:29:52.101Z,22.73
2018-10-11T07:35:01.796Z,22.13
2018-10-11T07:40:11.475Z,21.20
2018-10-11T07:45:21.078Z,20.83
2018-10-11T07:50:30.820Z,20.77
2018-10-11T07:55:40.246Z,20.37
2018-10-11T08:00:49.815Z,19.23
2018-10-11T08:05:59.580Z,19.33
2018-10-11T08:11:09.282Z,19.03
2018-10-11T08:16:18.882Z,13.73
2018-10-11T08:21:28.563Z,20.20
2018-10-11T08:26:38.181Z,19.03
2018-10-11T08:31:47.967Z,18.43
2018-10-11T08:36:57.689Z,17.07
2018-10-11T08:42:07.739Z,16.33
2018-10-11T08:47:17.260Z,16.77
2018-10-11T08:52:27.027Z,15.73
2018-10-11T08:57:36.448Z,18.97
2018-10-11T09:02:46.106Z,18.63
2018-10-11T09:07:55.847Z,15.47
2018-10-11T09:13:05.773Z,15.53
2018-10-11T09:18:15.204Z,16.30
2018-10-11T09:23:25.008Z,16.73
2018-10-11T09:28:34.486Z,15.77
2018-10-11T09:33:44.151Z,13.83
2018-10-11T09:38:53.977Z,14.17
2018-10-11T09:44:03.393Z,18.03
2018-10-11T09:49:13.160Z,12.43
2018-10-11T09:54:22.760Z,14.67
2018-10-11T09:59:32.408Z,15.83
2018-10-11T10:04:44.360Z,12.00
2018-10-11T10:09:53.830Z,14.83
2018-10-11T10:15:03.542Z,10.47
2018-10-11T10:20:13.009Z,11.10
2018-10-11T10:25:22.702Z,11.90
2018-10-11T10:30:37.831Z,11.57
2018-10-11T10:35:47.508Z,10.67
2018-10-11T10:40:57.219Z,14.30
2018-10-11T10:46:06.880Z,10.77
2018-10-11T10:51:16.343Z,6.27
2018-10-11T10:56:26.040Z,7.47
2018-10-11T11:01:35.617Z,6.27
2018-10-11T11:06:45.260Z,6.43
2018-10-11T11:11:54.764Z,6.13
2018-10-11T11:17:04.148Z,5.33
2018-10-11T11:22:13.540Z,5.20
2018-10-11T11:27:23.208Z,7.10
2018-10-11T11:32:32.814Z,6.20
2018-10-11T11:37:42.544Z,5.37
2018-10-11T11:42:52.241Z,5.43
2018-10-11T11:48:02.097Z,5.70
2018-10-11T11:53:11.697Z,5.10
2018-10-11T11:58:21.231Z,5.20
2018-10-11T12:03:30.899Z,5.03
2018-10-11T12:08:41.463Z,6.57
2018-10-11T12:13:50.824Z,10.27
2018-10-11T12:19:00.279Z,8.00
2018-10-11T12:24:09.930Z,7.20
2018-10-11T12:29:19.486Z,7.87
2018-10-11T12:34:29.117Z,5.53
2018-10-11T12:39:38.822Z,5.80
2018-10-11T12:44:48.444Z,6.23
2018-10-11T12:49:58.075Z,5.13
2018-10-11T12:55:08.238Z,7.33
2018-10-11T13:00:18.164Z,5.43
2018-10-11T13:05:27.656Z,5.43
2018-10-11T13:10:37.320Z,5.57
2018-10-11T13:15:47.103Z,5.37
2018-10-11T13:20:56.532Z,6.13
2018-10-11T13:26:06.166Z,6.87
2018-10-11T13:31:15.705Z,6.07
2018-10-11T13:36:25.173Z,6.40
2018-10-11T13:41:34.934Z,6.93
2018-10-11T13:46:44.309Z,5.00
2018-10-11T13:51:53.987Z,5.33
2018-10-11T13:57:03.623Z,5.20
2018-10-11T14:02:13.252Z,5.47
2018-10-11T14:07:22.904Z,7.60
2018-10-11T14:12:32.273Z,6.80
2018-10-11T14:17:42.021Z,6.37
2018-10-11T14:22:51.415Z,8.70
2018-10-11T14:28:01.027Z,6.60
2018-10-11T14:33:10.704Z,9.07
2018-10-11T14:38:20.743Z,6.83
2018-10-11T14:43:30.298Z,6.17
2018-10-11T14:48:39.882Z,6.93
2018-10-11T14:53:52.781Z,11.33
2018-10-11T14:58:58.918Z,9.03
2018-10-11T15:04:08.536Z,6.73
2018-10-11T15:09:18.230Z,7.43
2018-10-11T15:14:27.783Z,10.10
2018-10-11T15:19:37.520Z,7.00
2018-10-11T15:24:47.050Z,5.97
2018-10-11T15:29:56.654Z,7.80
2018-10-11T15:35:06.209Z,6.53
2018-10-11T15:40:15.821Z,6.17
2018-10-11T15:45:25.200Z,6.17
2018-10-11T15:50:34.947Z,6.97
2018-10-11T15:55:45.335Z,6.97
2018-10-11T16:00:54.896Z,7.53
2018-10-11T16:06:04.486Z,5.97
2018-10-11T16:11:14.030Z,6.17
2018-10-11T16:16:23.470Z,7.50
2018-10-11T16:21:33.160Z,7.93
2018-10-11T16:26:42.769Z,5.67
2018-10-11T16:31:53.123Z,6.23
2018-10-11T16:37:02.599Z,8.03
2018-10-11T16:42:12.203Z,6.90
2018-10-11T16:47:21.801Z,5.97
2018-10-11T16:52:31.329Z,7.60
2018-10-11T16:57:40.728Z,9.00
2018-10-11T17:02:50.377Z,8.10
2018-10-11T17:08:00.114Z,8.27
2018-10-11T17:13:09.723Z,7.53
2018-10-11T17:18:19.136Z,9.30
2018-10-11T17:23:28.601Z,7.10
2018-10-11T17:28:38.124Z,9.10
2018-10-11T17:33:47.742Z,9.43
2018-10-11T17:38:57.420Z,9.83
2018-10-11T17:44:07.194Z,10.57
2018-10-11T17:49:16.716Z,11.27
2018-10-11T17:54:26.376Z,7.70
2018-10-11T17:59:36.066Z,9.07
2018-10-11T18:04:46.164Z,10.77
2018-10-11T18:09:55.761Z,11.87
2018-10-11T18:15:05.258Z,8.33
2018-10-11T18:20:14.794Z,9.50
2018-10-11T18:25:24.908Z,6.97
2018-10-11T18:30:34.362Z,9.50
2018-10-11T18:35:43.916Z,8.83
2018-10-11T18:40:53.509Z,8.47
2018-10-11T18:46:03.875Z,9.63
2018-10-11T18:51:13.496Z,9.27
2018-10-11T18:56:22.912Z,11.77
2018-10-11T19:01:32.912Z,11.87
2018-10-11T19:06:42.461Z,11.93
2018-10-11T19:11:51.981Z,11.03
2018-10-11T19:17:01.593Z,13.37
2018-10-11T19:22:11.184Z,12.43
2018-10-11T19:27:20.821Z,12.07
2018-10-11T19:32:30.600Z,12.50
2018-10-11T19:37:40.216Z,13.37
2018-10-11T19:42:49.867Z,12.80
2018-10-11T19:47:59.545Z,14.83
2018-10-11T19:53:09.145Z,13.00
2018-10-11T19:58:19.079Z,14.40
2018-10-11T20:03:28.840Z,14.63
2018-10-11T20:08:39.169Z,14.37
2018-10-11T20:13:50.520Z,16.87
2018-10-11T20:19:05.258Z,15.27
2018-10-11T20:24:15.216Z,19.27
2018-10-11T20:29:24.809Z,16.30
2018-10-11T20:34:34.263Z,15.37
2018-10-11T20:39:43.735Z,17.43
2018-10-11T20:44:53.344Z,16.73
2018-10-11T20:50:02.847Z,13.87
2018-10-11T20:55:12.561Z,14.47
2018-10-11T21:00:22.304Z,15.90
2018-10-11T21:05:32.467Z,17.53
2018-10-11T21:10:43.269Z,14.60
2018-10-11T21:15:53.389Z,12.43
2018-10-11T21:21:02.788Z,14.80
2018-10-11T21:26:12.287Z,18.43
2018-10-11T21:31:21.830Z,14.20
2018-10-11T21:36:31.808Z,15.10
2018-10-11T21:41:42.868Z,15.27
2018-10-11T21:46:52.947Z,14.07
2018-10-11T21:52:02.624Z,15.17
2018-10-11T21:57:12.296Z,15.33
2018-10-11T22:02:22.064Z,16.63
2018-10-11T22:07:32.268Z,15.63
2018-10-11T22:12:42.253Z,13.47
2018-10-11T22:17:51.723Z,13.00
2018-10-11T22:23:01.372Z,14.97
2018-10-11T22:28:10.878Z,18.60
2018-10-11T22:33:20.368Z,15.20
2018-10-11T22:38:30.032Z,13.17
2018-10-11T22:43:39.705Z,12.87
2018-10-11T22:48:49.620Z,15.90
2018-10-11T22:53:59.228Z,13.87
2018-10-11T22:59:08.869Z,15.97
2018-10-11T23:04:18.715Z,15.17
2018-10-11T23:09:29.530Z,14.93
2018-10-11T23:14:39.004Z,13.47
2018-10-11T23:19:48.460Z,14.80
2018-10-11T23:24:58.131Z,12.97
2018-10-11T23:30:08.291Z,14.50
2018-10-11T23:35:18.360Z,13.23
2018-10-11T23:40:27.954Z,14.27
2018-10-11T23:45:38.273Z,13.87
2018-10-11T23:50:47.648Z,14.53
2018-10-11T23:55:57.141Z,14.00
